createdAt,value
2018-12-24T00:02:26.490Z,1.25
2018-12-24T00:05:22.355Z,1.30
2018-12-24T00:08:18.023Z,1.20
2018-12-24T00:11:14.724Z,1.40
2018-12-24T00:14:12.689Z,1.52
2018-12-24T00:17:08.683Z,1.20
2018-12-24T00:20:04.601Z,1.32
2018-12-24T00:23:01.696Z,1.10
2018-12-24T00:25:59.630Z,0.80
2018-12-24T00:28:55.691Z,0.70
2018-12-24T00:31:54.306Z,1.00
2018-12-24T00:34:51.779Z,0.70
2018-12-24T00:37:48.280Z,1.05
2018-12-24T00:40:45.103Z,0.85
2018-12-24T00:43:40.743Z,1.02
2018-12-24T00:46:36.184Z,0.93
2018-12-24T00:49:32.735Z,0.60
2018-12-24T00:52:28.828Z,0.80
2018-12-24T00:55:25.505Z,1.05
2018-12-24T00:58:23.132Z,0.75
2018-12-24T01:01:19.677Z,0.72
2018-12-24T01:04:16.114Z,1.00
2018-12-24T01:07:11.928Z,0.90
2018-12-24T01:10:08.421Z,1.15
2018-12-24T01:13:04.761Z,0.62
2018-12-24T01:16:01.217Z,0.90
2018-12-24T01:18:57.831Z,1.00
2018-12-24T01:21:54.611Z,0.85
2018-12-24T01:24:52.407Z,1.37
2018-12-24T01:27:49.244Z,1.10
2018-12-24T01:30:45.854Z,1.12
2018-12-24T01:33:42.201Z,1.00
2018-12-24T01:36:38.184Z,1.02
2018-12-24T01:39:34.612Z,1.40
2018-12-24T01:42:33.519Z,1.32
2018-12-24T01:45:29.400Z,1.62
2018-12-24T01:48:26.022Z,1.40
2018-12-24T01:51:22.541Z,1.57
2018-12-24T01:54:19.014Z,1.55
2018-12-24T01:57:15.125Z,1.42
2018-12-24T02:00:11.841Z,1.62
2018-12-24T02:03:08.428Z,1.52
2018-12-24T02:06:06.645Z,1.60
2018-12-24T02:09:04.247Z,1.52
2018-12-24T02:12:03.415Z,1.30
2018-12-24T02:14:59.946Z,1.40
2018-12-24T02:17:58.289Z,1.52
2018-12-24T02:20:54.828Z,1.52
2018-12-24T02:23:51.678Z,1.60
2018-12-24T02:26:48.420Z,1.77
2018-12-24T02:29:44.591Z,1.50
2018-12-24T02:32:40.340Z,1.75
2018-12-24T02:35:36.779Z,1.30
2018-12-24T02:38:33.484Z,1.40
2018-12-24T02:41:30.298Z,1.57
2018-12-24T02:44:25.918Z,2.00
2018-12-24T02:47:22.477Z,2.00
2018-12-24T02:50:18.936Z,2.20
2018-12-24T02:53:14.837Z,2.27
2018-12-24T02:56:11.503Z,2.27
2018-12-24T02:59:08.244Z,2.30
2018-12-24T03:02:04.045Z,2.42
2018-12-24T03:05:00.696Z,2.33
2018-12-24T03:07:56.614Z,2.00
2018-12-24T03:10:53.176Z,2.50
2018-12-24T03:13:50.008Z,2.10
2018-12-24T03:16:46.626Z,2.08
2018-12-24T03:19:42.470Z,2.30
2018-12-24T03:22:39.140Z,2.33
2018-12-24T03:25:38.013Z,2.30
2018-12-24T03:28:34.751Z,3.15
2018-12-24T03:31:31.483Z,2.80
2018-12-24T03:34:27.965Z,2.87
2018-12-24T03:37:23.816Z,3.37
2018-12-24T03:40:24.368Z,3.35
2018-12-24T03:43:20.952Z,3.45
2018-12-24T03:46:17.604Z,3.80
2018-12-24T03:49:14.473Z,3.52
2018-12-24T03:52:09.989Z,3.83
2018-12-24T03:55:06.252Z,3.20
2018-12-24T03:58:02.840Z,3.37
2018-12-24T04:00:59.456Z,3.00
2018-12-24T04:03:55.991Z,3.60
2018-12-24T04:06:53.046Z,3.12
2018-12-24T04:09:49.778Z,3.45
2018-12-24T04:12:46.557Z,3.87
2018-12-24T04:15:42.225Z,3.45
2018-12-24T04:18:38.432Z,3.70
2018-12-24T04:21:34.333Z,3.40
2018-12-24T04:24:32.642Z,3.50
2018-12-24T04:27:29.336Z,2.80
2018-12-24T04:30:25.902Z,3.12
2018-12-24T04:33:22.543Z,2.75
2018-12-24T04:36:18.124Z,2.80
2018-12-24T04:39:18.822Z,2.30
2018-12-24T04:42:14.337Z,2.08
2018-12-24T04:45:12.679Z,1.80
2018-12-24T04:48:09.220Z,1.25
2018-12-24T04:51:05.083Z,1.62
2018-12-24T04:54:00.759Z,1.10
2018-12-24T04:56:57.395Z,1.00
2018-12-24T04:59:55.873Z,1.32
2018-12-24T05:02:52.153Z,1.10
2018-12-24T05:05:47.707Z,1.10
2018-12-24T05:08:44.242Z,1.25
2018-12-24T05:11:41.090Z,1.20
2018-12-24T05:14:37.849Z,1.10
2018-12-24T05:17:33.372Z,1.02
2018-12-24T05:20:28.883Z,1.10
2018-12-24T05:23:25.298Z,1.47
2018-12-24T05:26:21.189Z,1.77
2018-12-24T05:29:17.997Z,1.50
2018-12-24T05:32:13.714Z,1.57
2018-12-24T05:35:10.504Z,1.60
2018-12-24T05:38:06.180Z,1.35
2018-12-24T05:41:01.666Z,1.70
2018-12-24T05:43:57.897Z,1.70
2018-12-24T05:46:54.026Z,1.98
2018-12-24T05:49:50.158Z,2.17
2018-12-24T05:52:46.327Z,1.95
2018-12-24T05:55:42.845Z,2.85
2018-12-24T05:58:39.785Z,2.58
2018-12-24T06:01:36.416Z,2.60
2018-12-24T06:04:33.055Z,2.42
2018-12-24T06:07:29.882Z,2.65
2018-12-24T06:10:26.467Z,2.50
2018-12-24T06:13:22.161Z,2.67
2018-12-24T06:16:19.670Z,2.62
2018-12-24T06:19:16.198Z,2.77
2018-12-24T06:22:17.288Z,2.87
2018-12-24T06:25:13.631Z,3.10
2018-12-24T06:28:10.446Z,3.67
2018-12-24T06:31:07.093Z,2.70
2018-12-24T06:34:03.910Z,2.80
2018-12-24T06:37:00.480Z,3.25
2018-12-24T06:39:56.956Z,3.02
2018-12-24T06:42:53.845Z,2.65
2018-12-24T06:45:49.340Z,2.72
2018-12-24T06:48:45.762Z,3.05
2018-12-24T06:51:42.173Z,2.80
2018-12-24T06:54:39.160Z,2.42
2018-12-24T06:57:34.825Z,3.17
2018-12-24T07:00:30.631Z,4.78
2018-12-24T07:03:26.318Z,3.25
2018-12-24T07:06:22.311Z,3.47
2018-12-24T07:09:18.943Z,3.77
2018-12-24T07:12:15.354Z,4.50
2018-12-24T07:15:11.859Z,4.08
2018-12-24T07:18:07.666Z,3.80
2018-12-24T07:21:04.161Z,4.40
2018-12-24T07:24:01.641Z,5.47
2018-12-24T07:26:59.044Z,4.47
2018-12-24T07:30:04.168Z,4.83
2018-12-24T07:33:00.771Z,4.60
2018-12-24T07:35:57.173Z,5.03
2018-12-24T07:38:53.814Z,5.50
2018-12-24T07:41:50.653Z,5.60
2018-12-24T07:44:46.388Z,5.85
2018-12-24T07:47:43.738Z,5.97
2018-12-24T07:50:39.865Z,5.00
2018-12-24T07:53:37.069Z,5.35
2018-12-24T07:56:33.712Z,5.58
2018-12-24T07:59:33.896Z,5.47
2018-12-24T08:02:32.220Z,5.60
2018-12-24T08:05:29.746Z,5.67
2018-12-24T08:08:28.966Z,7.62
2018-12-24T08:11:25.451Z,6.00
2018-12-24T08:14:33.050Z,5.85
2018-12-24T08:17:24.789Z,7.53
2018-12-24T08:20:20.700Z,6.30
2018-12-24T08:23:16.626Z,6.70
2018-12-24T08:26:15.042Z,6.20
2018-12-24T08:29:10.864Z,6.37
2018-12-24T08:32:11.499Z,6.22
2018-12-24T08:35:15.777Z,6.15
2018-12-24T08:38:12.228Z,5.65
2018-12-24T08:41:09.282Z,5.37
2018-12-24T08:44:05.978Z,5.37
2018-12-24T08:47:03.111Z,5.20
2018-12-24T08:50:00.331Z,5.12
2018-12-24T08:52:58.174Z,4.62
2018-12-24T08:55:54.407Z,5.00
2018-12-24T08:58:51.406Z,5.10
2018-12-24T09:01:47.882Z,4.70
2018-12-24T09:04:44.574Z,5.40
2018-12-24T09:07:43.794Z,4.78
2018-12-24T09:10:39.954Z,3.60
2018-12-24T09:13:35.557Z,4.30
2018-12-24T09:16:32.604Z,3.98
2018-12-24T09:19:31.760Z,3.15
2018-12-24T09:22:37.159Z,3.37
2018-12-24T09:25:34.355Z,3.65
2018-12-24T09:28:31.376Z,3.70
2018-12-24T09:31:29.714Z,3.15
2018-12-24T09:34:30.498Z,3.22
2018-12-24T09:37:27.160Z,3.58
2018-12-24T09:40:23.028Z,3.37
2018-12-24T09:43:18.613Z,2.90
2018-12-24T09:46:16.163Z,2.80
2018-12-24T09:49:21.889Z,2.67
2018-12-24T09:52:20.402Z,3.50
2018-12-24T09:55:20.376Z,3.55
2018-12-24T09:58:21.563Z,3.10
2018-12-24T10:01:23.307Z,3.30
2018-12-24T10:04:54.839Z,3.47
2018-12-24T10:07:50.968Z,3.15
2018-12-24T10:10:46.652Z,2.77
2018-12-24T10:13:42.233Z,2.65
2018-12-24T10:16:38.925Z,3.05
2018-12-24T10:19:35.285Z,3.50
2018-12-24T10:22:32.276Z,3.90
2018-12-24T10:25:29.671Z,4.30
2018-12-24T10:28:25.527Z,3.40
2018-12-24T10:31:22.223Z,3.58
2018-12-24T10:34:18.948Z,3.85
2018-12-24T10:37:15.759Z,3.20
2018-12-24T10:40:16.063Z,2.90
2018-12-24T10:43:14.823Z,3.92
2018-12-24T10:46:10.726Z,1.92
2018-12-24T10:49:06.453Z,2.87
2018-12-24T10:52:02.919Z,2.33
2018-12-24T10:54:59.834Z,2.12
2018-12-24T10:57:56.206Z,1.70
2018-12-24T11:00:52.075Z,2.10
2018-12-24T11:03:50.453Z,2.10
2018-12-24T11:06:46.437Z,1.67
2018-12-24T11:09:43.020Z,2.02
2018-12-24T11:12:40.405Z,1.87
2018-12-24T11:15:36.683Z,1.60
2018-12-24T11:18:32.558Z,1.70
2018-12-24T11:21:29.131Z,1.45
2018-12-24T11:24:25.591Z,1.10
2018-12-24T11:27:21.971Z,1.00
2018-12-24T11:30:17.622Z,1.37
2018-12-24T11:33:14.438Z,1.25
2018-12-24T11:36:10.631Z,1.12
2018-12-24T11:39:07.822Z,1.20
2018-12-24T11:42:05.068Z,1.32
2018-12-24T11:45:02.287Z,1.37
2018-12-24T11:47:59.569Z,1.27
2018-12-24T11:50:58.404Z,1.72
2018-12-24T11:53:54.325Z,1.37
2018-12-24T11:56:51.145Z,1.40
2018-12-24T11:59:46.995Z,1.62
2018-12-24T12:02:43.492Z,1.60
2018-12-24T12:05:41.428Z,1.75
2018-12-24T12:08:37.832Z,1.67
2018-12-24T12:11:34.384Z,1.50
2018-12-24T12:14:31.019Z,2.02
2018-12-24T12:17:27.443Z,2.00
2018-12-24T12:20:24.563Z,2.40
2018-12-24T12:23:32.701Z,2.50
2018-12-24T12:26:30.273Z,3.12
2018-12-24T12:29:26.499Z,2.75
2018-12-24T12:32:23.310Z,1.98
2018-12-24T12:35:19.427Z,1.70
2018-12-24T12:38:15.599Z,1.70
2018-12-24T12:41:10.984Z,2.12
2018-12-24T12:44:07.874Z,2.00
2018-12-24T12:47:03.391Z,1.70
2018-12-24T12:50:01.228Z,2.58
2018-12-24T12:52:56.978Z,2.30
2018-12-24T12:55:52.119Z,3.02
2018-12-24T12:58:48.247Z,5.20
2018-12-24T13:01:44.166Z,4.42
2018-12-24T13:04:41.064Z,3.30
2018-12-24T13:07:36.139Z,2.90
2018-12-24T13:10:34.470Z,2.72
2018-12-24T13:13:36.897Z,2.55
2018-12-24T13:16:33.830Z,3.05
2018-12-24T13:19:29.504Z,3.30
2018-12-24T13:22:25.984Z,3.45
2018-12-24T13:25:23.656Z,3.33
2018-12-24T13:28:21.749Z,3.15
2018-12-24T13:31:20.251Z,3.37
2018-12-24T13:34:16.002Z,2.95
2018-12-24T13:37:12.373Z,3.15
2018-12-24T13:40:08.325Z,3.25
2018-12-24T13:43:04.887Z,3.30
2018-12-24T13:46:08.039Z,3.40
2018-12-24T13:48:59.841Z,3.10
2018-12-24T13:51:55.882Z,4.72
2018-12-24T13:54:51.525Z,3.40
2018-12-24T13:57:47.044Z,4.10
2018-12-24T14:00:44.408Z,3.65
2018-12-24T14:03:40.529Z,3.52
2018-12-24T14:06:40.117Z,6.53
2018-12-24T14:09:36.200Z,4.05
2018-12-24T14:12:31.296Z,4.30
2018-12-24T14:15:26.863Z,3.55
2018-12-24T14:18:22.221Z,4.00
2018-12-24T14:21:18.309Z,4.10
2018-12-24T14:24:14.410Z,3.90
2018-12-24T14:27:09.641Z,3.85
2018-12-24T14:30:17.342Z,4.60
2018-12-24T14:33:13.394Z,4.17
2018-12-24T14:36:08.298Z,3.65
2018-12-24T14:39:06.643Z,3.52
2018-12-24T14:42:02.445Z,4.55
2018-12-24T14:44:59.064Z,4.50
2018-12-24T15:07:09.903Z,5.17
2018-12-24T15:10:06.506Z,3.83
2018-12-24T15:13:02.606Z,3.05
2018-12-24T15:15:59.193Z,4.12
2018-12-24T15:18:55.247Z,5.10
2018-12-24T15:21:51.246Z,5.00
2018-12-24T15:24:46.646Z,2.37
2018-12-24T15:27:42.152Z,2.77
2018-12-24T15:30:37.438Z,2.25
2018-12-24T15:33:37.994Z,1.92
2018-12-24T15:36:33.921Z,2.52
2018-12-24T15:39:30.255Z,2.90
2018-12-24T15:42:26.996Z,2.30
2018-12-24T15:45:23.841Z,3.37
2018-12-24T15:48:19.826Z,1.75
2018-12-24T15:51:16.201Z,2.02
2018-12-24T15:54:13.231Z,3.25
2018-12-24T15:57:11.406Z,3.10
2018-12-24T16:00:09.260Z,1.85
2018-12-24T16:03:05.067Z,2.95
2018-12-24T16:06:01.629Z,3.17
2018-12-24T16:08:57.793Z,2.33
2018-12-24T16:11:53.920Z,2.80
2018-12-24T16:14:49.732Z,2.65
2018-12-24T16:17:46.374Z,2.22
2018-12-24T16:20:43.189Z,2.27
2018-12-24T16:23:39.909Z,2.92
2018-12-24T16:26:38.635Z,2.85
2018-12-24T16:29:33.689Z,2.80
2018-12-24T16:32:29.870Z,3.00
2018-12-24T16:35:29.554Z,2.50
2018-12-24T16:38:26.150Z,2.52
2018-12-24T16:41:22.531Z,2.45
2018-12-24T16:44:18.063Z,2.45
2018-12-24T16:47:14.746Z,2.70
2018-12-24T16:50:10.798Z,2.77
2018-12-24T16:53:05.775Z,2.75
2018-12-24T16:56:01.749Z,2.47
2018-12-24T16:58:57.792Z,2.85
2018-12-24T17:01:53.074Z,2.55
2018-12-24T17:04:49.590Z,2.67
2018-12-24T17:07:44.457Z,2.90
2018-12-24T17:10:40.502Z,2.60
2018-12-24T17:13:36.533Z,2.87
2018-12-24T17:16:31.947Z,2.12
2018-12-24T17:19:27.584Z,2.98
2018-12-24T17:22:23.042Z,2.80
2018-12-24T17:25:18.516Z,3.47
2018-12-24T17:28:17.728Z,2.98
2018-12-24T17:31:13.889Z,3.40
2018-12-24T17:34:09.169Z,2.83
2018-12-24T17:37:06.404Z,3.35
2018-12-24T17:40:02.662Z,3.33
2018-12-24T17:42:58.607Z,3.37
2018-12-24T17:45:54.119Z,3.47
2018-12-24T17:48:49.999Z,3.22
2018-12-24T17:51:48.936Z,3.47
2018-12-24T17:54:45.336Z,2.83
2018-12-24T17:57:51.013Z,2.65
2018-12-24T18:00:48.102Z,3.20
2018-12-24T18:03:44.783Z,2.75
2018-12-24T18:06:49.156Z,3.00
2018-12-24T18:09:46.359Z,3.92
2018-12-24T18:12:42.966Z,2.67
2018-12-24T18:15:37.836Z,3.37
2018-12-24T18:18:33.447Z,3.20
2018-12-24T18:21:30.571Z,2.95
2018-12-24T18:24:25.967Z,2.65
2018-12-24T18:27:21.901Z,2.65
2018-12-24T18:30:21.697Z,2.60
2018-12-24T18:33:17.428Z,2.30
2018-12-24T18:36:12.769Z,2.67
2018-12-24T18:39:09.097Z,2.37
2018-12-24T18:42:06.305Z,2.22
2018-12-24T18:45:01.585Z,3.58
2018-12-24T18:48:29.461Z,2.85
2018-12-24T18:51:35.535Z,3.35
2018-12-24T18:54:30.435Z,2.70
2018-12-24T18:57:37.270Z,2.98
2018-12-24T19:00:34.146Z,2.90
2018-12-24T19:03:30.274Z,2.80
2018-12-24T19:06:26.067Z,2.58
2018-12-24T19:09:29.488Z,3.05
2018-12-24T19:12:25.717Z,2.75
2018-12-24T19:15:20.972Z,3.70
2018-12-24T19:18:17.261Z,3.40
2018-12-24T19:21:13.634Z,3.37
2018-12-24T19:24:08.574Z,2.87
2018-12-24T19:27:03.420Z,3.55
2018-12-24T19:29:58.515Z,3.37
2018-12-24T19:32:55.251Z,3.25
2018-12-24T19:35:50.751Z,3.20
2018-12-24T19:38:46.458Z,3.25
2018-12-24T19:41:43.077Z,3.72
2018-12-24T19:44:40.336Z,3.60
2018-12-24T19:47:35.317Z,3.65
2018-12-24T19:50:34.089Z,3.47
2018-12-24T19:53:29.872Z,3.70
2018-12-24T19:56:25.646Z,3.70
2018-12-24T19:59:21.150Z,3.33
2018-12-24T20:02:18.570Z,4.00
2018-12-24T20:05:14.864Z,3.50
2018-12-24T20:08:12.921Z,3.47
2018-12-24T20:11:08.353Z,3.40
2018-12-24T20:14:03.453Z,3.95
2018-12-24T20:16:59.603Z,3.58
2018-12-24T20:19:55.043Z,4.03
2018-12-24T20:22:51.193Z,3.25
2018-12-24T20:25:46.859Z,3.67
2018-12-24T20:28:42.278Z,3.30
2018-12-24T20:31:38.611Z,3.67
2018-12-24T20:34:34.024Z,3.58
2018-12-24T20:37:31.639Z,3.67
2018-12-24T20:40:27.800Z,3.47
2018-12-24T20:43:23.984Z,3.60
2018-12-24T20:46:20.510Z,3.87
2018-12-24T20:49:16.670Z,3.27
2018-12-24T20:52:11.495Z,4.33
2018-12-24T20:55:08.099Z,3.67
2018-12-24T20:58:04.044Z,3.50
2018-12-24T21:01:00.641Z,3.12
2018-12-24T21:03:56.774Z,3.70
2018-12-24T21:06:52.718Z,3.37
2018-12-24T21:09:48.811Z,3.67
2018-12-24T21:12:44.569Z,3.10
2018-12-24T21:15:39.641Z,3.30
2018-12-24T21:18:35.907Z,3.22
2018-12-24T21:21:31.446Z,3.58
2018-12-24T21:24:27.972Z,2.85
2018-12-24T21:27:24.010Z,3.55
2018-12-24T21:30:32.574Z,3.00
2018-12-24T21:33:28.332Z,3.52
2018-12-24T21:36:24.721Z,3.22
2018-12-24T21:39:23.724Z,3.40
2018-12-24T21:42:20.240Z,3.40
2018-12-24T21:45:16.470Z,3.87
2018-12-24T21:48:12.878Z,3.77
2018-12-24T21:51:10.409Z,3.52
2018-12-24T21:54:06.955Z,3.37
2018-12-24T21:57:04.417Z,4.30
2018-12-24T22:00:00.012Z,4.22
2018-12-24T22:02:58.416Z,3.65
2018-12-24T22:05:55.159Z,3.85
2018-12-24T22:08:50.452Z,3.30
2018-12-24T22:11:45.760Z,3.95
2018-12-24T22:14:42.496Z,4.42
2018-12-24T22:17:38.805Z,3.98
2018-12-24T22:20:34.579Z,3.95
2018-12-24T22:23:31.083Z,5.33
2018-12-24T22:26:27.888Z,4.62
2018-12-24T22:29:23.181Z,4.75
2018-12-24T22:32:19.714Z,4.65
2018-12-24T22:35:15.604Z,4.62
2018-12-24T22:38:11.468Z,4.08
2018-12-24T22:41:09.439Z,4.85
2018-12-24T22:44:05.220Z,4.85
2018-12-24T22:47:03.326Z,4.62
2018-12-24T22:49:58.555Z,5.97
2018-12-24T22:52:54.741Z,4.80
2018-12-24T22:55:52.446Z,5.95
2018-12-24T22:58:49.296Z,4.92
2018-12-24T23:01:45.482Z,5.80
2018-12-24T23:04:41.756Z,6.40
2018-12-24T23:07:38.992Z,5.62
2018-12-24T23:10:35.505Z,5.35
2018-12-24T23:13:33.199Z,5.83
2018-12-24T23:16:28.306Z,6.17
2018-12-24T23:19:24.644Z,5.37
2018-12-24T23:22:20.567Z,5.45
2018-12-24T23:25:16.410Z,5.55
2018-12-24T23:28:12.344Z,7.30
2018-12-24T23:31:08.082Z,4.95
2018-12-24T23:34:04.154Z,6.62
2018-12-24T23:37:00.853Z,6.90
2018-12-24T23:39:55.871Z,6.22
2018-12-24T23:42:52.370Z,6.45
2018-12-24T23:45:51.900Z,6.08
2018-12-24T23:48:48.617Z,5.95
2018-12-24T23:51:45.181Z,6.20
2018-12-24T23:54:41.211Z,6.15
2018-12-24T23:57:37.256Z,5.83
